Penn Park, Indiana
Current Conditions -  °F | °C
As of 3:15 PM on Saturday 25 Oct 2014 (Local Time) from KANQ Reporting Station
Clear Clear  
Wind Chill: 68°   Ceiling: Unl
Heat Index: 68°   Visibility: 10mi
Dew Point: 46°   Wind: 13mph
Humidity: 46%   Direction: 280°W
Pressure: 29.85"   Gusts: NA
Location:  41.5557°N, 84.8806°W
Report Text: KANQ 251915Z AUTO 28011KT 10SM CLR 20/08 A2985 RMK
Loading
Personal Weather Stations






























Interactive Weather Map
Tropical Storm Tracking
New forecast layout! Learn more

10-Day Weather Forecast

Advertisements
Track Severe Weather on mobile